USCGC Elm — NRPK — position and weather

sailwx.info

Track history (hours):
 
Tides and Currents Weather Stations Pressure Air Temp Water Temp Dewpoint Dewpoint Depression Visibility Wind Speed Wind Dir Waves Ship Positions

USCGC Elm

Last reported at 2018-Jan-24 20:34 UTC. Time now 2018-Jun-20 03:56 UTC.
Position N 39°12' W 076°34'.
Warning: this ship's position is months out of date.

Length 68 m; draft 4 m.

Type: Law enforcement. MMSI: 366951000.

Date/timePositionNaut miles runAvg speedWind from/ knotsBaromVisibWave heightAir tempDewpointWater temp
2018-Jan-24 20:34N 39°12' W 076°34'0 0.0
2018-Jan-24 20:28N 39°12' W 076°34'0 0.1
2018-Jan-24 20:01N 39°12' W 076°34'1 2.0
2018-Jan-24 19:30N 39°13' W 076°35'3 5.5
2018-Jan-24 18:57N 39°12' W 076°31'510.4
2018-Jan-24 18:28N 39°10' W 076°25'510.1
2018-Jan-24 18:00N 39°05' W 076°24'4 8.6
2018-Jan-24 17:30N 39°01' W 076°22'3 6.5
2018-Jan-24 17:00N 38°58' W 076°23'0 0.0
2018-Jan-24 16:30N 38°58' W 076°23'0 0.9
2018-Jan-24 16:01N 38°57' W 076°23'1 1.6
2018-Jan-24 15:30N 38°56' W 076°23'1 2.6
2018-Jan-24 15:00N 38°58' W 076°23'3 5.3
2018-Jan-24 14:31N 38°58' W 076°27'2 3.7
2018-Jan-24 13:58N 38°59' W 076°29'0 0.0
2018-Jan-24 13:28N 38°59' W 076°29'0 0.0
2018-Jan-24 12:58N 38°59' W 076°29'0 0.0
2018-Jan-24 12:28N 38°59' W 076°29'0 0.0
2018-Jan-24 11:58N 38°59' W 076°29'0 0.0
2018-Jan-24 11:28N 38°59' W 076°29'0 0.0
2018-Jan-24 10:58N 38°59' W 076°29'0 0.0
2018-Jan-24 10:29N 38°59' W 076°29'0 0.0
2018-Jan-24 09:58N 38°59' W 076°29'0 0.0
2018-Jan-24 09:28N 38°59' W 076°29'0 0.0
2018-Jan-24 08:58N 38°59' W 076°29'0 0.0
2018-Jan-24 08:28N 38°59' W 076°29'0 0.0
2018-Jan-24 07:58N 38°59' W 076°29'0 0.0
2018-Jan-24 07:28N 38°59' W 076°29'0 0.0
2018-Jan-24 06:58N 38°59' W 076°29'0 0.0
2018-Jan-24 06:28N 38°59' W 076°29'0 0.0
2018-Jan-24 05:58N 38°59' W 076°29'0 0.0
2018-Jan-24 05:28N 38°59' W 076°29'0 0.0
2018-Jan-24 04:58N 38°59' W 076°29'0 0.0
2018-Jan-24 04:28N 38°59' W 076°29'0 0.0
2018-Jan-24 03:58N 38°59' W 076°29'0 0.0
2018-Jan-24 03:28N 38°59' W 076°29'0 0.0
2018-Jan-24 02:58N 38°59' W 076°29'0 0.0
2018-Jan-24 02:28N 38°59' W 076°29'0 0.0
2018-Jan-24 01:59N 38°59' W 076°29'0 0.0
2018-Jan-24 01:28N 38°59' W 076°29'0 0.0
2018-Jan-24 00:58N 38°59' W 076°29'0 0.0
2018-Jan-24 00:28N 38°59' W 076°29'0 0.0
2018-Jan-23 23:59N 38°59' W 076°29'0 0.0
2018-Jan-23 23:28N 38°59' W 076°29'0 0.0
2018-Jan-23 22:58N 38°59' W 076°29'0 0.0
2018-Jan-23 22:28N 38°59' W 076°29'0 0.0
2018-Jan-23 21:58N 38°59' W 076°29'0 0.0
2018-Jan-23 21:28N 38°59' W 076°29'0 0.0
2018-Jan-23 20:58N 38°59' W 076°29'0 0.0
2018-Jan-23 20:30N 38°59' W 076°29'0 1.0
2018-Jan-23 20:00N 38°59' W 076°28'2 3.8
2018-Jan-23 19:31N 38°58' W 076°26'2 3.9
2018-Jan-23 19:00N 38°56' W 076°26'0 1.0
2018-Jan-23 18:30N 38°55' W 076°26'0 0.1
2018-Jan-23 18:00N 38°55' W 076°26'0 0.1
2018-Jan-23 17:30N 38°55' W 076°26'0 0.1
2018-Jan-23 17:00N 38°55' W 076°26'0 0.0
2018-Jan-23 16:21N 38°55' W 076°26'0 0.0
2018-Jan-23 16:00N 38°55' W 076°26'0 0.0
2018-Jan-23 15:29N 38°55' W 076°26'0 0.0
2018-Jan-23 14:59N 38°55' W 076°26'0 0.0
2018-Jan-23 14:26N 38°55' W 076°26'0 0.0
2018-Jan-23 13:51N 38°55' W 076°26'0 0.0
2018-Jan-23 13:27N 38°55' W 076°26'0 0.0
2018-Jan-23 12:59N 38°55' W 076°26'0 0.0
2018-Jan-23 12:27N 38°55' W 076°26'0 0.0
2018-Jan-23 11:57N 38°55' W 076°26'0 0.0
2018-Jan-23 11:27N 38°55' W 076°26'0 0.0
2018-Jan-23 10:57N 38°55' W 076°26'0 0.0
2018-Jan-23 10:30N 38°55' W 076°26'0 0.1
2018-Jan-23 10:00N 38°55' W 076°26'0 0.1
2018-Jan-23 09:30N 38°55' W 076°26'0 0.0
2018-Jan-23 09:00N 38°55' W 076°26'0 0.0
2018-Jan-23 08:30N 38°55' W 076°26'0 0.0
2018-Jan-23 07:57N 38°55' W 076°26'0 0.0
2018-Jan-23 07:27N 38°55' W 076°26'0 0.0
2018-Jan-23 06:57N 38°55' W 076°26'0 0.1
2018-Jan-23 06:30N 38°55' W 076°26'0 0.0
2018-Jan-23 05:56N 38°55' W 076°26'0 0.0
2018-Jan-23 05:29N 38°55' W 076°26'0 0.0
2018-Jan-23 04:56N 38°55' W 076°26'0 0.0
2018-Jan-23 04:29N 38°55' W 076°26'0 0.0
2018-Jan-23 03:59N 38°55' W 076°26'0 0.0
2018-Jan-23 03:26N 38°55' W 076°26'0 0.0
2018-Jan-23 02:57N 38°55' W 076°26'0 0.0
2018-Jan-23 02:27N 38°55' W 076°26'0 0.0
2018-Jan-23 01:57N 38°55' W 076°26'0 0.0
2018-Jan-23 01:30N 38°55' W 076°26'0 0.0
2018-Jan-23 00:57N 38°55' W 076°26'0 0.0
2018-Jan-23 00:30N 38°55' W 076°26'0 0.0
2018-Jan-23 00:00N 38°55' W 076°26'0 0.0
2018-Jan-22 23:27N 38°55' W 076°26'1 1.9
2018-Jan-22 23:00N 38°55' W 076°26'5 9.4
2018-Jan-22 22:30N 38°50' W 076°25'3 5.6
2018-Jan-22 22:00N 38°47' W 076°26'4 7.9
2018-Jan-22 21:30N 38°43' W 076°26'612.6
2018-Jan-22 21:00N 38°37' W 076°27'2912.9
2018-Jan-22 18:47N 38°10' W 076°15'6611.7
2018-Jan-22 13:12N 37°05' W 076°06'312.7
2018-Jan-22 12:59N 37°02' W 076°04'612.2
2018-Jan-22 12:30N 36°58' W 075°59'155 8.9
2018-Jan-21 19:09N 34°26' W 076°32'210.8
2018-Jan-21 18:57N 34°26' W 076°35'510.8
2018-Jan-21 18:30N 34°30' W 076°37'510.6
2018-Jan-21 18:00N 34°35' W 076°39'4 8.6
2018-Jan-21 17:30N 34°39' W 076°40'3 4.6
2018-Jan-21 16:57N 34°42' W 076°41'0 0.0
2018-Jan-21 16:27N 34°42' W 076°41'0 0.0
2018-Jan-21 15:58N 34°42' W 076°41'0 0.0
2018-Jan-21 15:28N 34°42' W 076°41'0 0.0
2018-Jan-21 14:52N 34°42' W 076°41'0 0.0
2018-Jan-21 14:28N 34°42' W 076°41'0 0.0
2018-Jan-21 13:58N 34°42' W 076°41'0 0.0
2018-Jan-21 13:28N 34°42' W 076°41'0 0.0
2018-Jan-21 12:58N 34°42' W 076°41'0 0.0
2018-Jan-21 12:30N 34°42' W 076°41'0 0.0
2018-Jan-21 11:42N 34°42' W 076°41'0 0.0
2018-Jan-21 11:27N 34°42' W 076°41'0 0.0
2018-Jan-21 10:57N 34°42' W 076°41'0 0.0
2018-Jan-21 10:30N 34°42' W 076°41'0 0.0
2018-Jan-21 09:57N 34°42' W 076°41'0 0.0
2018-Jan-21 09:27N 34°42' W 076°41'0 0.0
2018-Jan-21 08:57N 34°42' W 076°41'0 0.0
2018-Jan-21 08:27N 34°42' W 076°41'0 0.0
2018-Jan-21 07:57N 34°42' W 076°41'0 0.0
2018-Jan-21 07:28N 34°42' W 076°41'0 0.0
2018-Jan-21 06:58N 34°42' W 076°41'0 0.0
2018-Jan-21 06:28N 34°42' W 076°41'0 0.0
2018-Jan-21 05:58N 34°42' W 076°41'0 0.0
2018-Jan-21 05:28N 34°42' W 076°41'0 0.0
2018-Jan-21 04:58N 34°42' W 076°41'0 0.0
2018-Jan-21 04:28N 34°42' W 076°41'0 0.0
2018-Jan-21 03:58N 34°42' W 076°41'0 0.0
2018-Jan-21 03:30N 34°42' W 076°41'0 0.0
2018-Jan-21 02:58N 34°42' W 076°41'0 0.0
2018-Jan-21 02:30N 34°42' W 076°41'0 0.0
2018-Jan-21 02:00N 34°42' W 076°41'0 0.0
2018-Jan-21 01:30N 34°42' W 076°41'0 0.0
2018-Jan-21 01:00N 34°42' W 076°41'0 0.0
2018-Jan-21 00:30N 34°42' W 076°41'0 0.0
2018-Jan-20 23:57N 34°42' W 076°41'0 0.0
2018-Jan-20 23:27N 34°42' W 076°41'0 0.0
2018-Jan-20 22:52N 34°42' W 076°41'0 0.0
2018-Jan-20 22:25N 34°42' W 076°41'0 0.0
2018-Jan-20 21:46N 34°42' W 076°41'0 0.0
2018-Jan-20 21:28N 34°42' W 076°41'0 0.0
2018-Jan-20 20:58N 34°42' W 076°41'0 0.0
2018-Jan-20 20:28N 34°42' W 076°41'0 0.0
2018-Jan-20 19:58N 34°42' W 076°41'0 0.0
2018-Jan-20 19:30N 34°42' W 076°41'0 0.0
2018-Jan-20 19:00N 34°42' W 076°41'0 0.0
2018-Jan-20 18:30N 34°42' W 076°41'0 0.0
2018-Jan-20 17:58N 34°42' W 076°41'0 0.0
2018-Jan-20 17:30N 34°42' W 076°41'0 0.0
2018-Jan-20 16:58N 34°42' W 076°41'0 0.0
2018-Jan-20 16:28N 34°42' W 076°41'0 0.0
2018-Jan-20 15:55N 34°42' W 076°41'0 0.0
2018-Jan-20 15:25N 34°42' W 076°41'0 0.0
2018-Jan-20 14:55N 34°42' W 076°41'0 0.0
2018-Jan-20 14:27N 34°42' W 076°41'0 0.0
2018-Jan-20 13:57N 34°42' W 076°41'0 0.0
2018-Jan-20 13:28N 34°42' W 076°41'0 0.0
2018-Jan-20 12:55N 34°42' W 076°41'0 0.0
2018-Jan-20 12:25N 34°42' W 076°41'0 0.0
2018-Jan-20 11:58N 34°42' W 076°41'0 0.0
2018-Jan-20 11:28N 34°42' W 076°41'0 0.0
2018-Jan-20 10:58N 34°42' W 076°41'0 0.0
2018-Jan-20 10:28N 34°42' W 076°41'0 0.0
2018-Jan-20 09:58N 34°42' W 076°41'0 0.0
2018-Jan-20 09:31N 34°42' W 076°41'0 0.0
2018-Jan-20 09:00N 34°42' W 076°41'0 0.0
2018-Jan-20 08:30N 34°42' W 076°41'0 0.0
2018-Jan-20 08:00N 34°42' W 076°41'0 0.0
2018-Jan-20 07:30N 34°42' W 076°41'0 0.0
2018-Jan-20 07:00N 34°42' W 076°41'0 0.0
2018-Jan-20 06:25N 34°42' W 076°41'0 0.0
2018-Jan-20 05:57N 34°42' W 076°41'0 0.0
2018-Jan-20 05:28N 34°42' W 076°41'0 0.0
2018-Jan-20 04:58N 34°42' W 076°41'0 0.0
2018-Jan-20 04:28N 34°42' W 076°41'0 0.0
2018-Jan-20 03:58N 34°42' W 076°41'0 0.0
2018-Jan-20 03:28N 34°42' W 076°41'0 0.0
2018-Jan-20 02:52N 34°42' W 076°41'0 0.0
2018-Jan-20 02:28N 34°42' W 076°41'0 0.0
2018-Jan-20 01:55N 34°42' W 076°41'0 0.0
2018-Jan-20 01:28N 34°42' W 076°41'0 0.0
2018-Jan-20 00:58N 34°42' W 076°41'0 0.0
2018-Jan-20 00:30N 34°42' W 076°41'0 0.0
2018-Jan-20 00:00N 34°42' W 076°41'0 0.0
2018-Jan-19 23:27N 34°42' W 076°41'0 0.0
2018-Jan-19 22:57N 34°42' W 076°41'0 0.0
2018-Jan-19 22:30N 34°42' W 076°41'0 0.0
2018-Jan-19 21:58N 34°42' W 076°41'0 0.0
2018-Jan-19 21:28N 34°42' W 076°41'0 0.0
2018-Jan-19 20:55N 34°42' W 076°41'0 0.0
2018-Jan-19 20:27N 34°42' W 076°41'0 0.0
2018-Jan-19 19:57N 34°42' W 076°41'0 0.0
2018-Jan-19 19:25N 34°42' W 076°41'0 0.0
2018-Jan-19 18:57N 34°42' W 076°41'0 0.0
2018-Jan-19 18:30N 34°42' W 076°41'0 0.0
2018-Jan-19 18:00N 34°42' W 076°41'0 0.0
2018-Jan-19 17:30N 34°42' W 076°41'0 0.0
2018-Jan-19 17:00N 34°42' W 076°41'0 0.0
2018-Jan-19 16:28N 34°42' W 076°41'0 0.0
2018-Jan-19 16:00N 34°42' W 076°41'0 0.0
2018-Jan-19 15:28N 34°42' W 076°41'0 0.0
2018-Jan-19 14:58N 34°42' W 076°41'0 0.0
2018-Jan-19 14:28N 34°42' W 076°41'0 0.0
2018-Jan-19 13:58N 34°42' W 076°41'0 0.0
2018-Jan-19 13:28N 34°42' W 076°41'0 0.0
2018-Jan-19 12:55N 34°42' W 076°41'0 0.0
2018-Jan-19 12:28N 34°42' W 076°41'0 0.0
2018-Jan-19 11:58N 34°42' W 076°41'0 0.0
2018-Jan-19 11:22N 34°42' W 076°41'0 0.0
2018-Jan-19 10:57N 34°42' W 076°41'0 0.0
2018-Jan-19 10:25N 34°42' W 076°41'0 0.0
2018-Jan-19 10:01N 34°42' W 076°41'0 0.0
2018-Jan-19 09:30N 34°42' W 076°41'0 0.0
2018-Jan-19 08:58N 34°42' W 076°41'0 0.0
2018-Jan-19 08:28N 34°42' W 076°41'0 0.0
2018-Jan-19 08:00N 34°42' W 076°41'0 0.0
2018-Jan-19 07:28N 34°42' W 076°41'0 0.0
2018-Jan-19 06:58N 34°42' W 076°41'0 0.0
2018-Jan-19 06:28N 34°42' W 076°41'0 0.0
2018-Jan-19 05:58N 34°42' W 076°41'0 0.0
2018-Jan-19 05:25N 34°42' W 076°41'0 0.0
2018-Jan-19 04:58N 34°42' W 076°41'0 0.0
2018-Jan-19 04:25N 34°42' W 076°41'0 0.0
2018-Jan-19 03:55N 34°42' W 076°41'0 0.0
2018-Jan-19 03:27N 34°42' W 076°41'0 0.0
2018-Jan-19 02:58N 34°42' W 076°41'0 0.0
2018-Jan-19 02:28N 34°42' W 076°41'0 0.0
2018-Jan-19 01:58N 34°42' W 076°41'0 0.0
2018-Jan-19 01:30N 34°42' W 076°41'0 0.0
2018-Jan-19 01:00N 34°42' W 076°41'0 0.0
2018-Jan-19 00:28N 34°42' W 076°41'0 0.0
2018-Jan-18 23:58N 34°42' W 076°41'0 0.0
2018-Jan-18 23:28N 34°42' W 076°41'0 0.0
2018-Jan-18 22:58N 34°42' W 076°41'0 0.0
2018-Jan-18 22:28N 34°42' W 076°41'0 0.0
2018-Jan-18 21:58N 34°42' W 076°41'0 0.0
2018-Jan-18 21:25N 34°42' W 076°41'0 0.0
2018-Jan-18 20:58N 34°42' W 076°41'0 0.0
2018-Jan-18 20:28N 34°42' W 076°41'0 0.0
2018-Jan-18 19:55N 34°42' W 076°41'0 0.0
2018-Jan-18 19:27N 34°42' W 076°41'0 0.0
2018-Jan-18 19:00N 34°42' W 076°41'0 0.0
2018-Jan-18 18:30N 34°42' W 076°41'0 0.0
2018-Jan-18 18:00N 34°42' W 076°41'0 0.0
2018-Jan-18 17:30N 34°42' W 076°41'0 0.0
2018-Jan-18 16:58N 34°42' W 076°41'0 0.0
2018-Jan-18 16:28N 34°42' W 076°41'0 0.0
2018-Jan-18 15:58N 34°42' W 076°41'0 0.0
2018-Jan-18 15:28N 34°42' W 076°41'0 0.0
2018-Jan-18 14:58N 34°42' W 076°41'0 0.0
2018-Jan-18 14:28N 34°42' W 076°41'0 0.0
2018-Jan-18 13:58N 34°42' W 076°41'0 0.0
2018-Jan-18 13:28N 34°42' W 076°41'0 0.0
2018-Jan-18 12:58N 34°42' W 076°41'0 0.0
2018-Jan-18 12:28N 34°42' W 076°41'0 0.0
2018-Jan-18 11:58N 34°42' W 076°41'0 0.0
2018-Jan-18 11:28N 34°42' W 076°41'0 0.0
2018-Jan-18 11:00N 34°42' W 076°41'0 0.0
2018-Jan-18 10:28N 34°42' W 076°41'0 0.0
2018-Jan-18 10:00N 34°42' W 076°41'0 0.0
2018-Jan-18 09:30N 34°42' W 076°41'0 0.0
2018-Jan-18 09:00N 34°42' W 076°41'0 0.0
2018-Jan-18 08:28N 34°42' W 076°41'0 0.0
2018-Jan-18 07:57N 34°42' W 076°41'0 0.0
2018-Jan-18 07:27N 34°42' W 076°41'0 0.0
2018-Jan-18 06:57N 34°42' W 076°41'0 0.0
2018-Jan-18 06:27N 34°42' W 076°41'0 0.0
2018-Jan-18 05:57N 34°42' W 076°41'0 0.0
2018-Jan-18 05:28N 34°42' W 076°41'0 0.0
2018-Jan-18 04:58N 34°42' W 076°41'0 0.0
2018-Jan-18 04:28N 34°42' W 076°41'0 0.0
2018-Jan-18 03:58N 34°42' W 076°41'0 0.0
2018-Jan-18 03:31N 34°42' W 076°41'0 0.0
2018-Jan-18 03:00N 34°42' W 076°41'0 0.0
2018-Jan-18 02:28N 34°42' W 076°41'0 0.0
2018-Jan-18 02:00N 34°42' W 076°41'0 0.0
2018-Jan-18 01:30N 34°42' W 076°41'0 0.0
2018-Jan-18 00:58N 34°42' W 076°41'0 0.0
2018-Jan-17 23:58N 34°42' W 076°41'0 0.0
2018-Jan-17 23:52N 34°42' W 076°41'  
Track history (hours):
 
Tides and Currents Weather Stations Pressure Air Temp Water Temp Dewpoint Dewpoint Depression Visibility Wind Speed Wind Dir Waves Ship Positions

USCGC Elm

Last reported at 2018-Jan-24 20:34 UTC. Time now 2018-Jun-20 03:56 UTC.
Position N 39°12' W 076°34'.
Warning: this ship's position is months out of date.

Length 68 m; draft 4 m.

Type: Law enforcement. MMSI: 366951000.

Date/timePositionNaut miles runAvg speedWind from/ knotsBaromVisibWave heightAir tempDewpointWater temp
2018-Jan-24 20:34N 39°12' W 076°34'0 0.0
2018-Jan-24 20:28N 39°12' W 076°34'0 0.1
2018-Jan-24 20:01N 39°12' W 076°34'1 2.0
2018-Jan-24 19:30N 39°13' W 076°35'3 5.5
2018-Jan-24 18:57N 39°12' W 076°31'510.4
2018-Jan-24 18:28N 39°10' W 076°25'510.1
2018-Jan-24 18:00N 39°05' W 076°24'4 8.6
2018-Jan-24 17:30N 39°01' W 076°22'3 6.5
2018-Jan-24 17:00N 38°58' W 076°23'0 0.0
2018-Jan-24 16:30N 38°58' W 076°23'0 0.9
2018-Jan-24 16:01N 38°57' W 076°23'1 1.6
2018-Jan-24 15:30N 38°56' W 076°23'1 2.6
2018-Jan-24 15:00N 38°58' W 076°23'3 5.3
2018-Jan-24 14:31N 38°58' W 076°27'2 3.7
2018-Jan-24 13:58N 38°59' W 076°29'0 0.0
2018-Jan-24 13:28N 38°59' W 076°29'0 0.0
2018-Jan-24 12:58N 38°59' W 076°29'0 0.0
2018-Jan-24 12:28N 38°59' W 076°29'0 0.0
2018-Jan-24 11:58N 38°59' W 076°29'0 0.0
2018-Jan-24 11:28N 38°59' W 076°29'0 0.0
2018-Jan-24 10:58N 38°59' W 076°29'0 0.0
2018-Jan-24 10:29N 38°59' W 076°29'0 0.0
2018-Jan-24 09:58N 38°59' W 076°29'0 0.0
2018-Jan-24 09:28N 38°59' W 076°29'0 0.0
2018-Jan-24 08:58N 38°59' W 076°29'0 0.0
2018-Jan-24 08:28N 38°59' W 076°29'0 0.0
2018-Jan-24 07:58N 38°59' W 076°29'0 0.0
2018-Jan-24 07:28N 38°59' W 076°29'0 0.0
2018-Jan-24 06:58N 38°59' W 076°29'0 0.0
2018-Jan-24 06:28N 38°59' W 076°29'0 0.0
2018-Jan-24 05:58N 38°59' W 076°29'0 0.0
2018-Jan-24 05:28N 38°59' W 076°29'0 0.0
2018-Jan-24 04:58N 38°59' W 076°29'0 0.0
2018-Jan-24 04:28N 38°59' W 076°29'0 0.0
2018-Jan-24 03:58N 38°59' W 076°29'0 0.0
2018-Jan-24 03:28N 38°59' W 076°29'0 0.0
2018-Jan-24 02:58N 38°59' W 076°29'0 0.0
2018-Jan-24 02:28N 38°59' W 076°29'0 0.0
2018-Jan-24 01:59N 38°59' W 076°29'0 0.0
2018-Jan-24 01:28N 38°59' W 076°29'0 0.0
2018-Jan-24 00:58N 38°59' W 076°29'0 0.0
2018-Jan-24 00:28N 38°59' W 076°29'0 0.0
2018-Jan-23 23:59N 38°59' W 076°29'0 0.0
2018-Jan-23 23:28N 38°59' W 076°29'0 0.0
2018-Jan-23 22:58N 38°59' W 076°29'0 0.0
2018-Jan-23 22:28N 38°59' W 076°29'0 0.0
2018-Jan-23 21:58N 38°59' W 076°29'0 0.0
2018-Jan-23 21:28N 38°59' W 076°29'0 0.0
2018-Jan-23 20:58N 38°59' W 076°29'0 0.0
2018-Jan-23 20:30N 38°59' W 076°29'0 1.0
2018-Jan-23 20:00N 38°59' W 076°28'2 3.8
2018-Jan-23 19:31N 38°58' W 076°26'2 3.9
2018-Jan-23 19:00N 38°56' W 076°26'0 1.0
2018-Jan-23 18:30N 38°55' W 076°26'0 0.1
2018-Jan-23 18:00N 38°55' W 076°26'0 0.1
2018-Jan-23 17:30N 38°55' W 076°26'0 0.1
2018-Jan-23 17:00N 38°55' W 076°26'0 0.0
2018-Jan-23 16:21N 38°55' W 076°26'0 0.0
2018-Jan-23 16:00N 38°55' W 076°26'0 0.0
2018-Jan-23 15:29N 38°55' W 076°26'0 0.0
2018-Jan-23 14:59N 38°55' W 076°26'0 0.0
2018-Jan-23 14:26N 38°55' W 076°26'0 0.0
2018-Jan-23 13:51N 38°55' W 076°26'0 0.0
2018-Jan-23 13:27N 38°55' W 076°26'0 0.0
2018-Jan-23 12:59N 38°55' W 076°26'0 0.0
2018-Jan-23 12:27N 38°55' W 076°26'0 0.0
2018-Jan-23 11:57N 38°55' W 076°26'0 0.0
2018-Jan-23 11:27N 38°55' W 076°26'0 0.0
2018-Jan-23 10:57N 38°55' W 076°26'0 0.0
2018-Jan-23 10:30N 38°55' W 076°26'0 0.1
2018-Jan-23 10:00N 38°55' W 076°26'0 0.1
2018-Jan-23 09:30N 38°55' W 076°26'0 0.0
2018-Jan-23 09:00N 38°55' W 076°26'0 0.0
2018-Jan-23 08:30N 38°55' W 076°26'0 0.0
2018-Jan-23 07:57N 38°55' W 076°26'0 0.0
2018-Jan-23 07:27N 38°55' W 076°26'0 0.0
2018-Jan-23 06:57N 38°55' W 076°26'0 0.1
2018-Jan-23 06:30N 38°55' W 076°26'0 0.0
2018-Jan-23 05:56N 38°55' W 076°26'0 0.0
2018-Jan-23 05:29N 38°55' W 076°26'0 0.0
2018-Jan-23 04:56N 38°55' W 076°26'0 0.0
2018-Jan-23 04:29N 38°55' W 076°26'0 0.0
2018-Jan-23 03:59N 38°55' W 076°26'0 0.0
2018-Jan-23 03:26N 38°55' W 076°26'0 0.0
2018-Jan-23 02:57N 38°55' W 076°26'0 0.0
2018-Jan-23 02:27N 38°55' W 076°26'0 0.0
2018-Jan-23 01:57N 38°55' W 076°26'0 0.0
2018-Jan-23 01:30N 38°55' W 076°26'0 0.0
2018-Jan-23 00:57N 38°55' W 076°26'0 0.0
2018-Jan-23 00:30N 38°55' W 076°26'0 0.0
2018-Jan-23 00:00N 38°55' W 076°26'0 0.0
2018-Jan-22 23:27N 38°55' W 076°26'1 1.9
2018-Jan-22 23:00N 38°55' W 076°26'5 9.4
2018-Jan-22 22:30N 38°50' W 076°25'3 5.6
2018-Jan-22 22:00N 38°47' W 076°26'4 7.9
2018-Jan-22 21:30N 38°43' W 076°26'612.6
2018-Jan-22 21:00N 38°37' W 076°27'2912.9
2018-Jan-22 18:47N 38°10' W 076°15'6611.7
2018-Jan-22 13:12N 37°05' W 076°06'312.7
2018-Jan-22 12:59N 37°02' W 076°04'612.2
2018-Jan-22 12:30N 36°58' W 075°59'155 8.9
2018-Jan-21 19:09N 34°26' W 076°32'210.8
2018-Jan-21 18:57N 34°26' W 076°35'510.8
2018-Jan-21 18:30N 34°30' W 076°37'510.6
2018-Jan-21 18:00N 34°35' W 076°39'4 8.6
2018-Jan-21 17:30N 34°39' W 076°40'3 4.6
2018-Jan-21 16:57N 34°42' W 076°41'0 0.0
2018-Jan-21 16:27N 34°42' W 076°41'0 0.0
2018-Jan-21 15:58N 34°42' W 076°41'0 0.0
2018-Jan-21 15:28N 34°42' W 076°41'0 0.0
2018-Jan-21 14:52N 34°42' W 076°41'0 0.0
2018-Jan-21 14:28N 34°42' W 076°41'0 0.0
2018-Jan-21 13:58N 34°42' W 076°41'0 0.0
2018-Jan-21 13:28N 34°42' W 076°41'0 0.0
2018-Jan-21 12:58N 34°42' W 076°41'0 0.0
2018-Jan-21 12:30N 34°42' W 076°41'0 0.0
2018-Jan-21 11:42N 34°42' W 076°41'0 0.0
2018-Jan-21 11:27N 34°42' W 076°41'0 0.0
2018-Jan-21 10:57N 34°42' W 076°41'0 0.0
2018-Jan-21 10:30N 34°42' W 076°41'0 0.0
2018-Jan-21 09:57N 34°42' W 076°41'0 0.0
2018-Jan-21 09:27N 34°42' W 076°41'0 0.0
2018-Jan-21 08:57N 34°42' W 076°41'0 0.0
2018-Jan-21 08:27N 34°42' W 076°41'0 0.0
2018-Jan-21 07:57N 34°42' W 076°41'0 0.0
2018-Jan-21 07:28N 34°42' W 076°41'0 0.0
2018-Jan-21 06:58N 34°42' W 076°41'0 0.0
2018-Jan-21 06:28N 34°42' W 076°41'0 0.0
2018-Jan-21 05:58N 34°42' W 076°41'0 0.0
2018-Jan-21 05:28N 34°42' W 076°41'0 0.0
2018-Jan-21 04:58N 34°42' W 076°41'0 0.0
2018-Jan-21 04:28N 34°42' W 076°41'0 0.0
2018-Jan-21 03:58N 34°42' W 076°41'0 0.0
2018-Jan-21 03:30N 34°42' W 076°41'0 0.0
2018-Jan-21 02:58N 34°42' W 076°41'0 0.0
2018-Jan-21 02:30N 34°42' W 076°41'0 0.0
2018-Jan-21 02:00N 34°42' W 076°41'0 0.0
2018-Jan-21 01:30N 34°42' W 076°41'0 0.0
2018-Jan-21 01:00N 34°42' W 076°41'0 0.0
2018-Jan-21 00:30N 34°42' W 076°41'0 0.0
2018-Jan-20 23:57N 34°42' W 076°41'0 0.0
2018-Jan-20 23:27N 34°42' W 076°41'0 0.0
2018-Jan-20 22:52N 34°42' W 076°41'0 0.0
2018-Jan-20 22:25N 34°42' W 076°41'0 0.0
2018-Jan-20 21:46N 34°42' W 076°41'0 0.0
2018-Jan-20 21:28N 34°42' W 076°41'0 0.0
2018-Jan-20 20:58N 34°42' W 076°41'0 0.0
2018-Jan-20 20:28N 34°42' W 076°41'0 0.0
2018-Jan-20 19:58N 34°42' W 076°41'0 0.0
2018-Jan-20 19:30N 34°42' W 076°41'0 0.0
2018-Jan-20 19:00N 34°42' W 076°41'0 0.0
2018-Jan-20 18:30N 34°42' W 076°41'0 0.0
2018-Jan-20 17:58N 34°42' W 076°41'0 0.0
2018-Jan-20 17:30N 34°42' W 076°41'0 0.0
2018-Jan-20 16:58N 34°42' W 076°41'0 0.0
2018-Jan-20 16:28N 34°42' W 076°41'0 0.0
2018-Jan-20 15:55N 34°42' W 076°41'0 0.0
2018-Jan-20 15:25N 34°42' W 076°41'0 0.0
2018-Jan-20 14:55N 34°42' W 076°41'0 0.0
2018-Jan-20 14:27N 34°42' W 076°41'0 0.0
2018-Jan-20 13:57N 34°42' W 076°41'0 0.0
2018-Jan-20 13:28N 34°42' W 076°41'0 0.0
2018-Jan-20 12:55N 34°42' W 076°41'0 0.0
2018-Jan-20 12:25N 34°42' W 076°41'0 0.0
2018-Jan-20 11:58N 34°42' W 076°41'0 0.0
2018-Jan-20 11:28N 34°42' W 076°41'0 0.0
2018-Jan-20 10:58N 34°42' W 076°41'0 0.0
2018-Jan-20 10:28N 34°42' W 076°41'0 0.0
2018-Jan-20 09:58N 34°42' W 076°41'0 0.0
2018-Jan-20 09:31N 34°42' W 076°41'0 0.0
2018-Jan-20 09:00N 34°42' W 076°41'0 0.0
2018-Jan-20 08:30N 34°42' W 076°41'0 0.0
2018-Jan-20 08:00N 34°42' W 076°41'0 0.0
2018-Jan-20 07:30N 34°42' W 076°41'0 0.0
2018-Jan-20 07:00N 34°42' W 076°41'0 0.0
2018-Jan-20 06:25N 34°42' W 076°41'0 0.0
2018-Jan-20 05:57N 34°42' W 076°41'0 0.0
2018-Jan-20 05:28N 34°42' W 076°41'0 0.0
2018-Jan-20 04:58N 34°42' W 076°41'0 0.0
2018-Jan-20 04:28N 34°42' W 076°41'0 0.0
2018-Jan-20 03:58N 34°42' W 076°41'0 0.0
2018-Jan-20 03:28N 34°42' W 076°41'0 0.0
2018-Jan-20 02:52N 34°42' W 076°41'0 0.0
2018-Jan-20 02:28N 34°42' W 076°41'0 0.0
2018-Jan-20 01:55N 34°42' W 076°41'0 0.0
2018-Jan-20 01:28N 34°42' W 076°41'0 0.0
2018-Jan-20 00:58N 34°42' W 076°41'0 0.0
2018-Jan-20 00:30N 34°42' W 076°41'0 0.0
2018-Jan-20 00:00N 34°42' W 076°41'0 0.0
2018-Jan-19 23:27N 34°42' W 076°41'0 0.0
2018-Jan-19 22:57N 34°42' W 076°41'0 0.0
2018-Jan-19 22:30N 34°42' W 076°41'0 0.0
2018-Jan-19 21:58N 34°42' W 076°41'0 0.0
2018-Jan-19 21:28N 34°42' W 076°41'0 0.0
2018-Jan-19 20:55N 34°42' W 076°41'0 0.0
2018-Jan-19 20:27N 34°42' W 076°41'0 0.0
2018-Jan-19 19:57N 34°42' W 076°41'0 0.0
2018-Jan-19 19:25N 34°42' W 076°41'0 0.0
2018-Jan-19 18:57N 34°42' W 076°41'0 0.0
2018-Jan-19 18:30N 34°42' W 076°41'0 0.0
2018-Jan-19 18:00N 34°42' W 076°41'0 0.0
2018-Jan-19 17:30N 34°42' W 076°41'0 0.0
2018-Jan-19 17:00N 34°42' W 076°41'0 0.0
2018-Jan-19 16:28N 34°42' W 076°41'0 0.0
2018-Jan-19 16:00N 34°42' W 076°41'0 0.0
2018-Jan-19 15:28N 34°42' W 076°41'0 0.0
2018-Jan-19 14:58N 34°42' W 076°41'0 0.0
2018-Jan-19 14:28N 34°42' W 076°41'0 0.0
2018-Jan-19 13:58N 34°42' W 076°41'0 0.0
2018-Jan-19 13:28N 34°42' W 076°41'0 0.0
2018-Jan-19 12:55N 34°42' W 076°41'0 0.0
2018-Jan-19 12:28N 34°42' W 076°41'0 0.0
2018-Jan-19 11:58N 34°42' W 076°41'0 0.0
2018-Jan-19 11:22N 34°42' W 076°41'0 0.0
2018-Jan-19 10:57N 34°42' W 076°41'0 0.0
2018-Jan-19 10:25N 34°42' W 076°41'0 0.0
2018-Jan-19 10:01N 34°42' W 076°41'0 0.0
2018-Jan-19 09:30N 34°42' W 076°41'0 0.0
2018-Jan-19 08:58N 34°42' W 076°41'0 0.0
2018-Jan-19 08:28N 34°42' W 076°41'0 0.0
2018-Jan-19 08:00N 34°42' W 076°41'0 0.0
2018-Jan-19 07:28N 34°42' W 076°41'0 0.0
2018-Jan-19 06:58N 34°42' W 076°41'0 0.0
2018-Jan-19 06:28N 34°42' W 076°41'0 0.0
2018-Jan-19 05:58N 34°42' W 076°41'0 0.0
2018-Jan-19 05:25N 34°42' W 076°41'0 0.0
2018-Jan-19 04:58N 34°42' W 076°41'0 0.0
2018-Jan-19 04:25N 34°42' W 076°41'0 0.0
2018-Jan-19 03:55N 34°42' W 076°41'0 0.0
2018-Jan-19 03:27N 34°42' W 076°41'0 0.0
2018-Jan-19 02:58N 34°42' W 076°41'0 0.0
2018-Jan-19 02:28N 34°42' W 076°41'0 0.0
2018-Jan-19 01:58N 34°42' W 076°41'0 0.0
2018-Jan-19 01:30N 34°42' W 076°41'0 0.0
2018-Jan-19 01:00N 34°42' W 076°41'0 0.0
2018-Jan-19 00:28N 34°42' W 076°41'0 0.0
2018-Jan-18 23:58N 34°42' W 076°41'0 0.0
2018-Jan-18 23:28N 34°42' W 076°41'0 0.0
2018-Jan-18 22:58N 34°42' W 076°41'0 0.0
2018-Jan-18 22:28N 34°42' W 076°41'0 0.0
2018-Jan-18 21:58N 34°42' W 076°41'0 0.0
2018-Jan-18 21:25N 34°42' W 076°41'0 0.0
2018-Jan-18 20:58N 34°42' W 076°41'0 0.0
2018-Jan-18 20:28N 34°42' W 076°41'0 0.0
2018-Jan-18 19:55N 34°42' W 076°41'0 0.0
2018-Jan-18 19:27N 34°42' W 076°41'0 0.0
2018-Jan-18 19:00N 34°42' W 076°41'0 0.0
2018-Jan-18 18:30N 34°42' W 076°41'0 0.0
2018-Jan-18 18:00N 34°42' W 076°41'0 0.0
2018-Jan-18 17:30N 34°42' W 076°41'0 0.0
2018-Jan-18 16:58N 34°42' W 076°41'0 0.0
2018-Jan-18 16:28N 34°42' W 076°41'0 0.0
2018-Jan-18 15:58N 34°42' W 076°41'0 0.0
2018-Jan-18 15:28N 34°42' W 076°41'0 0.0
2018-Jan-18 14:58N 34°42' W 076°41'0 0.0
2018-Jan-18 14:28N 34°42' W 076°41'0 0.0
2018-Jan-18 13:58N 34°42' W 076°41'0 0.0
2018-Jan-18 13:28N 34°42' W 076°41'0 0.0
2018-Jan-18 12:58N 34°42' W 076°41'0 0.0
2018-Jan-18 12:28N 34°42' W 076°41'0 0.0
2018-Jan-18 11:58N 34°42' W 076°41'0 0.0
2018-Jan-18 11:28N 34°42' W 076°41'0 0.0
2018-Jan-18 11:00N 34°42' W 076°41'0 0.0
2018-Jan-18 10:28N 34°42' W 076°41'0 0.0
2018-Jan-18 10:00N 34°42' W 076°41'0 0.0
2018-Jan-18 09:30N 34°42' W 076°41'0 0.0
2018-Jan-18 09:00N 34°42' W 076°41'0 0.0
2018-Jan-18 08:28N 34°42' W 076°41'0 0.0
2018-Jan-18 07:57N 34°42' W 076°41'0 0.0
2018-Jan-18 07:27N 34°42' W 076°41'0 0.0
2018-Jan-18 06:57N 34°42' W 076°41'0 0.0
2018-Jan-18 06:27N 34°42' W 076°41'0 0.0
2018-Jan-18 05:57N 34°42' W 076°41'0 0.0
2018-Jan-18 05:28N 34°42' W 076°41'0 0.0
2018-Jan-18 04:58N 34°42' W 076°41'0 0.0
2018-Jan-18 04:28N 34°42' W 076°41'0 0.0
2018-Jan-18 03:58N 34°42' W 076°41'0 0.0
2018-Jan-18 03:31N 34°42' W 076°41'0 0.0
2018-Jan-18 03:00N 34°42' W 076°41'0 0.0
2018-Jan-18 02:28N 34°42' W 076°41'0 0.0
2018-Jan-18 02:00N 34°42' W 076°41'0 0.0
2018-Jan-18 01:30N 34°42' W 076°41'0 0.0
2018-Jan-18 00:58N 34°42' W 076°41'0 0.0
2018-Jan-17 23:58N 34°42' W 076°41'0 0.0
2018-Jan-17 23:52N 34°42' W 076°41'  

Dump ship's entire track history